Time;durP1;ratioP1;P1;durP2;ratioP2;P2;SDS_P1;SDS_P2;PMS_P1;PMS_P2;Temp;Humidity;BMP_temperature;BMP_pressure;BME280_temperature;BME280_humidity;BME280_pressure;Samples;Min_cycle;Max_cycle;Signal;HPM_P1;HPM_P2
2022/07/17 00:02:07;;;;;;;3.08;1.10;;;13.20;99.90;;;;;;5050024;28;20069;-47
2022/07/17 00:04:33;;;;;;;2.70;0.93;;;13.20;99.90;;;;;;5048408;28;20087;-46
2022/07/17 00:06:58;;;;;;;2.90;0.90;;;13.20;99.90;;;;;;5049414;28;20509;-46
2022/07/17 00:09:24;;;;;;;3.47;0.70;;;13.20;99.90;;;;;;5046370;28;20041;-49
2022/07/17 00:11:49;;;;;;;4.75;0.93;;;13.20;99.90;;;;;;5029728;28;20041;-49
2022/07/17 00:14:16;;;;;;;2.38;0.60;;;13.20;99.90;;;;;;5028936;28;20381;-49
2022/07/17 00:16:42;;;;;;;6.95;0.80;;;13.10;99.90;;;;;;5034951;28;20041;-51
2022/07/17 00:19:07;;;;;;;2.47;0.98;;;13.00;99.90;;;;;;5048191;28;20044;-47
2022/07/17 00:21:33;;;;;;;3.80;0.98;;;13.00;99.90;;;;;;5040948;28;20040;-49
2022/07/17 00:23:58;;;;;;;1.60;0.30;;;12.90;99.90;;;;;;5040277;28;20041;-48
2022/07/17 00:26:24;;;;;;;1.17;0.20;;;12.90;99.90;;;;;;5043870;28;20033;-49
2022/07/17 00:28:50;;;;;;;1.08;0.55;;;12.80;99.90;;;;;;5047838;28;20284;-45
2022/07/17 00:31:15;;;;;;;2.00;1.00;;;12.80;99.90;;;;;;5043576;28;20505;-48
2022/07/17 00:33:41;;;;;;;4.37;1.53;;;12.80;99.90;;;;;;5029559;28;20038;-47
2022/07/17 00:36:07;;;;;;;1.77;0.50;;;12.80;99.90;;;;;;5037283;28;20283;-46
2022/07/17 00:38:33;;;;;;;1.73;0.73;;;12.80;99.90;;;;;;5042251;28;20554;-49
2022/07/17 00:40:59;;;;;;;1.33;0.35;;;12.70;99.90;;;;;;5037046;28;20037;-49
2022/07/17 00:43:25;;;;;;;0.65;0.40;;;12.70;99.90;;;;;;5044630;28;20116;-45
2022/07/17 00:45:59;;;;;;;0.63;0.40;;;12.60;99.90;;;;;;5031144;28;20067;-45
2022/07/17 00:48:26;;;;;;;0.38;0.25;;;12.60;99.90;;;;;;5048531;28;20424;-49
2022/07/17 00:50:52;;;;;;;0.43;0.30;;;12.60;99.90;;;;;;5031597;28;20041;-45
2022/07/17 00:53:18;;;;;;;1.48;0.82;;;12.50;99.90;;;;;;5047618;28;20037;-47
2022/07/17 00:55:47;;;;;;;16.13;1.52;;;12.40;99.90;;;;;;5047174;28;20033;-48
2022/07/17 00:58:22;;;;;;;0.70;0.60;;;12.40;99.90;;;;;;5046615;28;20352;-45
2022/07/17 01:00:50;;;;;;;1.80;0.70;;;12.20;99.90;;;;;;5044127;28;20041;-46
2022/07/17 01:03:17;;;;;;;1.25;0.90;;;12.10;99.90;;;;;;5046001;28;20486;-45
2022/07/17 01:05:42;;;;;;;1.38;1.15;;;12.10;99.90;;;;;;5047936;28;20045;-45
2022/07/17 01:08:08;;;;;;;0.93;0.30;;;12.00;99.90;;;;;;5041223;28;20036;-46
2022/07/17 01:10:34;;;;;;;1.98;0.50;;;12.00;99.90;;;;;;5050790;28;20561;-49
2022/07/17 01:13:00;;;;;;;1.88;0.50;;;12.00;99.90;;;;;;5044175;28;20111;-47
2022/07/17 01:15:25;;;;;;;3.03;1.08;;;12.00;99.90;;;;;;5052059;28;20075;-46
2022/07/17 01:17:51;;;;;;;4.13;0.82;;;12.00;99.90;;;;;;5038847;28;20091;-47
2022/07/17 01:20:17;;;;;;;1.10;0.57;;;12.00;99.90;;;;;;5033351;28;20040;-50
2022/07/17 01:22:44;;;;;;;1.08;0.50;;;12.00;99.90;;;;;;5043603;28;20037;-48
2022/07/17 01:25:10;;;;;;;1.30;0.75;;;11.80;99.90;;;;;;5042007;28;20041;-46
2022/07/17 01:27:36;;;;;;;5.05;3.13;;;11.80;99.90;;;;;;5037324;28;20529;-49
2022/07/17 01:30:02;;;;;;;4.53;2.60;;;11.70;99.90;;;;;;5033405;28;20120;-50
2022/07/17 01:32:35;;;;;;;3.65;1.45;;;11.50;99.90;;;;;;5044259;28;20037;-48
2022/07/17 01:35:02;;;;;;;1.23;0.30;;;11.50;99.90;;;;;;5038482;28;20037;-48
2022/07/17 01:37:29;;;;;;;1.05;0.30;;;11.60;99.90;;;;;;5048563;28;20141;-45
2022/07/17 01:39:55;;;;;;;6.05;0.40;;;11.60;99.90;;;;;;5052652;28;20068;-46
2022/07/17 01:42:23;;;;;;;2.17;0.50;;;11.60;99.90;;;;;;5052056;28;20282;-45
2022/07/17 01:44:49;;;;;;;4.13;0.63;;;11.60;99.90;;;;;;5049753;28;20137;-47
2022/07/17 01:47:15;;;;;;;0.70;0.30;;;11.50;99.90;;;;;;5052459;28;20079;-46
2022/07/17 01:49:49;;;;;;;2.35;0.43;;;11.60;99.90;;;;;;5052302;28;20048;-46
2022/07/17 01:52:15;;;;;;;0.20;0.10;;;11.50;99.90;;;;;;5052483;28;20040;-46
2022/07/17 01:54:41;;;;;;;0.43;0.10;;;11.40;99.90;;;;;;5044657;28;20065;-46
2022/07/17 01:57:08;;;;;;;4.22;0.60;;;11.30;99.90;;;;;;5032290;28;20034;-45
2022/07/17 01:59:34;;;;;;;19.02;1.05;;;11.30;99.90;;;;;;5043967;28;20037;-48
2022/07/17 02:02:00;;;;;;;1.27;0.35;;;11.30;99.90;;;;;;5050748;28;20040;-48
2022/07/17 02:04:25;;;;;;;0.43;0.20;;;11.30;99.90;;;;;;5051285;28;20041;-45
2022/07/17 02:06:54;;;;;;;0.40;0.40;;;11.30;99.90;;;;;;5051611;28;20275;-48
2022/07/17 02:09:20;;;;;;;1.58;0.50;;;11.20;99.90;;;;;;5048586;28;20119;-48
2022/07/17 02:11:46;;;;;;;43.00;2.83;;;11.20;99.90;;;;;;5032512;28;20563;-46
2022/07/17 02:14:11;;;;;;;15.80;1.80;;;11.20;99.90;;;;;;5044021;28;20120;-49
2022/07/17 02:16:37;;;;;;;17.13;1.40;;;11.20;99.90;;;;;;5041854;28;20284;-49
2022/07/17 02:19:02;;;;;;;22.77;1.15;;;11.20;99.90;;;;;;5036074;28;20045;-45
2022/07/17 02:21:28;;;;;;;3.55;0.40;;;11.20;99.90;;;;;;5041620;28;20038;-47
2022/07/17 02:23:54;;;;;;;0.77;0.30;;;11.20;99.90;;;;;;5047594;28;20041;-49
2022/07/17 02:26:19;;;;;;;0.68;0.47;;;11.30;99.90;;;;;;5048370;28;20072;-46
2022/07/17 02:28:45;;;;;;;2.00;0.40;;;11.30;99.90;;;;;;5043793;28;20128;-47
2022/07/17 02:31:10;;;;;;;0.97;0.63;;;11.20;99.90;;;;;;5034920;28;20076;-47
2022/07/17 02:33:36;;;;;;;0.90;0.30;;;11.20;99.90;;;;;;5038651;28;20307;-45
2022/07/17 02:36:01;;;;;;;1.60;0.40;;;11.20;99.90;;;;;;5038671;28;20100;-50
2022/07/17 02:38:27;;;;;;;1.03;0.30;;;11.20;99.90;;;;;;5039314;28;20435;-48
2022/07/17 02:40:53;;;;;;;0.98;0.50;;;11.10;99.90;;;;;;5037198;28;20316;-44
2022/07/17 02:43:18;;;;;;;2.25;0.60;;;11.20;99.90;;;;;;5036432;28;20072;-48
2022/07/17 02:45:44;;;;;;;6.47;1.00;;;11.10;99.90;;;;;;5048871;28;20033;-45
2022/07/17 02:48:10;;;;;;;0.97;0.60;;;11.10;99.90;;;;;;5034299;28;20091;-48
2022/07/17 02:50:35;;;;;;;0.95;0.40;;;11.10;99.90;;;;;;5050521;28;20937;-46
2022/07/17 02:53:01;;;;;;;1.88;0.55;;;11.20;99.90;;;;;;5034479;28;20056;-46
2022/07/17 02:55:27;;;;;;;1.23;0.63;;;11.10;99.90;;;;;;5030770;28;20514;-50
2022/07/17 02:57:52;;;;;;;3.22;0.82;;;11.10;99.90;;;;;;5048947;28;20053;-46
2022/07/17 03:00:18;;;;;;;2.25;1.00;;;11.10;99.90;;;;;;5031970;28;20159;-46
2022/07/17 03:02:45;;;;;;;2.80;0.70;;;11.10;99.90;;;;;;5039834;28;20621;-47
2022/07/17 03:05:13;;;;;;;4.53;0.82;;;11.10;99.90;;;;;;5031933;28;20056;-44
2022/07/17 03:07:38;;;;;;;7.60;1.67;;;11.00;99.90;;;;;;5047853;28;20083;-48
2022/07/17 03:10:05;;;;;;;4.65;1.08;;;11.00;99.90;;;;;;5034679;28;20088;-45
2022/07/17 03:12:30;;;;;;;2.33;0.98;;;10.90;99.90;;;;;;5045508;28;20533;-45
2022/07/17 03:14:56;;;;;;;4.13;0.93;;;10.90;99.90;;;;;;5041965;28;20037;-47
2022/07/17 03:17:22;;;;;;;1.00;0.63;;;10.80;99.90;;;;;;5039649;28;20279;-50
2022/07/17 03:19:47;;;;;;;13.55;1.30;;;10.70;99.90;;;;;;5038324;28;20131;-45
2022/07/17 03:22:13;;;;;;;2.97;1.30;;;10.60;99.90;;;;;;5044482;28;20083;-47
2022/07/17 03:24:38;;;;;;;1.77;1.67;;;10.50;99.90;;;;;;5038546;28;20033;-46
2022/07/17 03:27:04;;;;;;;17.30;2.10;;;10.50;99.90;;;;;;5045818;28;20037;-50
2022/07/17 03:29:30;;;;;;;14.23;2.93;;;10.50;99.90;;;;;;5037343;28;20033;-50
2022/07/17 03:31:55;;;;;;;5.53;2.47;;;10.50;99.90;;;;;;5048241;28;20067;-47
2022/07/17 03:34:21;;;;;;;5.43;2.60;;;10.50;99.90;;;;;;5034331;28;20038;-49
2022/07/17 03:36:47;;;;;;;2.45;2.03;;;10.60;99.90;;;;;;5041929;28;20037;-46
2022/07/17 03:39:13;;;;;;;2.28;2.08;;;10.70;99.90;;;;;;5049813;28;20048;-49
2022/07/17 03:41:39;;;;;;;3.75;2.30;;;10.70;99.90;;;;;;5050480;28;20037;-47
2022/07/17 03:44:04;;;;;;;5.23;1.80;;;10.80;99.90;;;;;;5048509;28;20068;-47
2022/07/17 03:46:30;;;;;;;2.93;1.67;;;10.80;99.90;;;;;;5049796;28;20048;-45
2022/07/17 03:48:55;;;;;;;3.27;1.60;;;10.80;99.90;;;;;;5050447;28;20041;-45
2022/07/17 03:51:21;;;;;;;1.20;1.10;;;10.80;99.90;;;;;;5040918;28;20040;-45
2022/07/17 03:53:46;;;;;;;1.60;1.50;;;10.70;99.90;;;;;;5028999;28;20045;-46
2022/07/17 03:56:12;;;;;;;2.87;2.00;;;10.70;99.90;;;;;;5046279;28;20445;-46
2022/07/17 03:58:38;;;;;;;3.37;1.80;;;10.60;99.90;;;;;;5050201;28;20302;-47
2022/07/17 04:01:03;;;;;;;4.82;1.10;;;10.60;99.90;;;;;;5050026;28;20059;-45
2022/07/17 04:03:29;;;;;;;1.38;1.10;;;10.60;99.90;;;;;;5049211;28;20040;-45
2022/07/17 04:05:54;;;;;;;1.70;0.93;;;10.60;99.90;;;;;;5037289;28;20091;-46
2022/07/17 04:08:20;;;;;;;2.37;1.60;;;10.60;99.90;;;;;;5030637;28;20350;-45
2022/07/17 04:10:46;;;;;;;2.65;1.52;;;10.60;99.90;;;;;;5043970;28;20043;-48
2022/07/17 04:13:11;;;;;;;1.13;0.85;;;10.50;99.90;;;;;;5037405;28;20525;-46
2022/07/17 04:15:49;;;;;;;1.70;1.10;;;10.50;99.90;;;;;;5042733;28;20033;-46
2022/07/17 04:18:20;;;;;;;1.23;0.95;;;10.50;99.90;;;;;;5035077;28;20659;-46
2022/07/17 04:20:47;;;;;;;3.33;1.13;;;10.40;99.90;;;;;;5044583;28;20044;-45
2022/07/17 04:23:13;;;;;;;;;;;10.40;99.90;;;;;;5037278;28;20052;-47
2022/07/17 04:25:39;;;;;;;1.40;1.20;;;10.40;99.90;;;;;;5038156;28;19978;-47
2022/07/17 04:28:04;;;;;;;2.20;1.85;;;10.40;99.90;;;;;;5046174;28;20052;-46
2022/07/17 04:30:30;;;;;;;3.08;1.55;;;10.40;99.90;;;;;;5037474;28;20503;-45
2022/07/17 04:32:55;;;;;;;3.13;1.50;;;10.40;99.90;;;;;;5029993;28;20041;-49
2022/07/17 04:35:21;;;;;;;4.00;1.43;;;10.50;99.90;;;;;;5039746;28;20079;-46
2022/07/17 04:37:46;;;;;;;1.77;1.13;;;10.50;99.90;;;;;;5044590;28;20725;-46
2022/07/17 04:40:12;;;;;;;1.42;1.05;;;10.50;99.90;;;;;;5045297;28;20469;-45
2022/07/17 04:42:38;;;;;;;1.33;1.23;;;10.50;99.90;;;;;;5051642;28;20055;-45
2022/07/17 04:45:05;;;;;;;2.50;2.30;;;10.50;99.90;;;;;;5037354;28;20284;-46
2022/07/17 04:47:30;;;;;;;6.75;2.03;;;10.50;99.90;;;;;;5043530;28;20033;-45
2022/07/17 04:49:56;;;;;;;2.57;2.00;;;10.50;99.90;;;;;;5042529;28;20033;-48
2022/07/17 04:52:22;;;;;;;2.08;1.95;;;10.60;99.90;;;;;;5044912;28;20710;-47
2022/07/17 04:54:47;;;;;;;5.80;2.53;;;10.60;99.90;;;;;;5044035;28;20044;-46
2022/07/17 04:57:13;;;;;;;5.97;2.17;;;10.60;99.90;;;;;;5047204;28;20033;-47
2022/07/17 04:59:38;;;;;;;4.47;3.13;;;10.70;99.90;;;;;;5043815;28;20513;-45
2022/07/17 05:02:04;;;;;;;4.97;2.30;;;10.80;99.90;;;;;;5044740;28;20283;-49
2022/07/17 05:04:30;;;;;;;6.33;2.80;;;10.80;99.90;;;;;;5038801;28;20115;-46
2022/07/17 05:06:55;;;;;;;6.32;2.88;;;10.90;99.90;;;;;;5051368;28;20604;-46
2022/07/17 05:09:21;;;;;;;2.78;2.53;;;10.90;99.90;;;;;;5045562;28;20029;-49
2022/07/17 05:11:47;;;;;;;2.60;1.80;;;11.00;99.90;;;;;;5051474;28;20041;-46
2022/07/17 05:14:13;;;;;;;5.55;2.72;;;11.00;99.90;;;;;;5045461;28;20033;-50
2022/07/17 05:16:39;;;;;;;4.47;2.60;;;11.10;99.90;;;;;;5047110;28;20384;-48
2022/07/17 05:19:04;;;;;;;3.72;2.25;;;11.20;99.90;;;;;;5035100;28;20532;-45
2022/07/17 05:21:30;;;;;;;4.22;3.40;;;11.20;99.90;;;;;;5034480;28;20042;-46
2022/07/17 05:23:56;;;;;;;2.53;2.33;;;11.30;99.90;;;;;;5039990;28;20052;-46
2022/07/17 05:26:21;;;;;;;4.80;3.70;;;11.40;99.90;;;;;;5032623;28;20392;-49
2022/07/17 05:28:47;;;;;;;8.60;4.07;;;11.50;99.90;;;;;;5037859;28;20483;-46
2022/07/17 05:31:12;;;;;;;5.40;3.80;;;11.60;99.90;;;;;;5034174;28;20276;-45
2022/07/17 05:33:38;;;;;;;6.60;2.77;;;11.70;99.90;;;;;;5033033;28;20319;-46
2022/07/17 05:36:04;;;;;;;9.70;3.83;;;11.80;99.90;;;;;;5044273;28;20037;-49
2022/07/17 05:38:29;;;;;;;10.27;4.03;;;11.90;99.90;;;;;;5032899;28;20510;-47
2022/07/17 05:40:55;;;;;;;7.47;3.07;;;12.00;99.90;;;;;;5043244;28;20033;-47
2022/07/17 05:43:20;;;;;;;4.43;3.17;;;12.10;99.90;;;;;;5051485;28;20033;-51
2022/07/17 05:45:46;;;;;;;8.57;4.65;;;12.10;99.90;;;;;;5038705;28;20139;-45
2022/07/17 05:48:12;;;;;;;9.87;3.10;;;12.20;99.90;;;;;;5032270;28;20041;-45
2022/07/17 05:50:37;;;;;;;7.38;2.63;;;12.20;99.90;;;;;;5033449;28;20053;-48
2022/07/17 05:53:03;;;;;;;11.80;3.60;;;12.30;99.90;;;;;;5030485;28;20041;-48
2022/07/17 05:55:28;;;;;;;3.95;1.92;;;12.30;99.90;;;;;;5032235;28;20125;-49
2022/07/17 05:57:54;;;;;;;7.65;2.38;;;12.40;99.90;;;;;;5032253;28;20142;-45
2022/07/17 06:00:20;;;;;;;10.50;3.28;;;12.40;99.90;;;;;;5032294;28;20510;-46
2022/07/17 06:02:45;;;;;;;5.43;2.65;;;12.50;99.90;;;;;;5032701;28;20060;-45
2022/07/17 06:05:11;;;;;;;6.45;3.35;;;12.50;99.90;;;;;;5063189;28;20049;-47
2022/07/17 06:07:37;;;;;;;6.33;2.90;;;12.60;99.90;;;;;;5033156;28;20041;-47
2022/07/17 06:10:04;;;;;;;12.05;3.63;;;12.70;99.90;;;;;;5048678;28;20036;-46
2022/07/17 06:12:30;;;;;;;6.80;3.38;;;12.70;99.90;;;;;;5036126;28;20167;-47
2022/07/17 06:14:55;;;;;;;6.63;3.55;;;12.80;99.90;;;;;;5050415;28;20123;-51
2022/07/17 06:17:21;;;;;;;6.57;2.73;;;12.90;99.90;;;;;;5033066;28;20101;-47
2022/07/17 06:19:47;;;;;;;7.07;3.87;;;12.90;99.90;;;;;;5031724;28;20272;-45
2022/07/17 06:22:12;;;;;;;5.50;3.60;;;13.00;99.90;;;;;;5047024;28;20037;-48
2022/07/17 06:24:38;;;;;;;8.00;4.20;;;13.10;99.90;;;;;;5030958;28;20044;-46
2022/07/17 06:27:03;;;;;;;9.18;4.70;;;13.10;99.90;;;;;;5041627;28;20037;-46
2022/07/17 06:29:29;;;;;;;6.15;4.15;;;13.20;99.90;;;;;;5047177;28;20041;-48
2022/07/17 06:31:54;;;;;;;9.85;3.55;;;13.20;99.90;;;;;;5040077;28;20068;-46
2022/07/17 06:34:20;;;;;;;9.03;4.63;;;13.30;99.90;;;;;;5039796;28;20169;-50
2022/07/17 06:36:46;;;;;;;4.05;3.38;;;13.30;99.90;;;;;;5035635;28;20037;-50
2022/07/17 06:39:12;;;;;;;;;;;13.40;99.90;;;;;;5034310;28;20168;-47
2022/07/17 06:41:37;;;;;;;7.97;3.72;;;13.40;99.90;;;;;;5050798;28;19996;-46
2022/07/17 06:44:03;;;;;;;8.67;3.73;;;13.50;99.90;;;;;;5048445;28;20041;-46
2022/07/17 06:46:28;;;;;;;11.73;3.85;;;13.50;99.90;;;;;;5032102;28;20295;-49
2022/07/17 06:48:54;;;;;;;9.53;4.30;;;13.60;99.90;;;;;;5031106;28;20422;-49
2022/07/17 06:51:19;;;;;;;7.80;3.77;;;13.70;99.90;;;;;;5036876;28;20660;-52
2022/07/17 06:53:45;;;;;;;8.43;3.63;;;13.80;99.90;;;;;;5040594;28;20910;-45
2022/07/17 06:56:11;;;;;;;3.60;1.83;;;14.00;99.90;;;;;;5042384;28;20646;-46
2022/07/17 06:58:36;;;;;;;7.10;2.65;;;14.00;99.90;;;;;;5031096;28;20044;-49
2022/07/17 07:01:02;;;;;;;8.98;2.88;;;14.10;99.90;;;;;;5036276;28;20029;-49
2022/07/17 07:03:28;;;;;;;7.53;2.50;;;14.20;99.90;;;;;;5034520;28;20064;-49
2022/07/17 07:05:54;;;;;;;4.05;2.28;;;14.30;99.90;;;;;;5034662;28;20116;-50
2022/07/17 07:08:20;;;;;;;4.13;1.65;;;14.40;99.90;;;;;;5038161;28;20470;-50
2022/07/17 07:10:46;;;;;;;9.27;1.45;;;14.50;99.90;;;;;;5032154;28;20092;-50
2022/07/17 07:13:12;;;;;;;5.10;1.98;;;14.60;99.90;;;;;;5038918;28;20490;-51
2022/07/17 07:15:37;;;;;;;;;;;14.70;99.90;;;;;;5049695;28;20231;-46
2022/07/17 07:18:03;;;;;;;5.53;0.90;;;14.80;99.90;;;;;;5050271;28;20449;-46
2022/07/17 07:20:29;;;;;;;7.43;1.80;;;14.90;99.90;;;;;;5051016;28;20033;-50
2022/07/17 07:22:55;;;;;;;5.90;0.90;;;14.90;99.90;;;;;;5049737;28;20044;-51
2022/07/17 07:25:21;;;;;;;9.18;1.40;;;15.00;99.90;;;;;;5049663;28;20147;-46
2022/07/17 07:27:47;;;;;;;5.40;0.93;;;15.10;99.90;;;;;;5050610;28;20043;-46
2022/07/17 07:30:12;;;;;;;4.55;0.73;;;15.20;99.90;;;;;;5050337;28;20041;-46
2022/07/17 07:32:41;;;;;;;3.55;1.90;;;15.30;99.90;;;;;;5049742;28;20084;-51
2022/07/17 07:35:08;;;;;;;7.53;0.85;;;15.40;99.90;;;;;;5046121;28;20079;-49
2022/07/17 07:37:34;;;;;;;5.75;1.25;;;15.40;99.90;;;;;;5030100;28;20396;-48
2022/07/17 07:39:59;;;;;;;3.85;0.43;;;15.50;99.90;;;;;;5050585;28;20139;-51
2022/07/17 07:42:25;;;;;;;1.40;0.32;;;15.50;99.90;;;;;;5050224;28;20052;-51
2022/07/17 07:44:51;;;;;;;;;;;15.60;99.90;;;;;;5046471;28;20124;-47
2022/07/17 07:47:17;;;;;;;5.03;0.93;;;15.70;99.90;;;;;;5034991;28;19920;-50
2022/07/17 07:49:43;;;;;;;5.60;0.55;;;15.80;99.90;;;;;;5038862;28;20048;-52
2022/07/17 07:52:09;;;;;;;4.10;0.45;;;15.80;99.90;;;;;;5040221;28;20049;-47
2022/07/17 07:54:35;;;;;;;4.90;0.47;;;15.90;99.90;;;;;;5036907;28;20037;-47
2022/07/17 07:57:01;;;;;;;7.10;1.20;;;16.00;99.90;;;;;;5039338;28;20607;-48
2022/07/17 07:59:28;;;;;;;6.28;0.40;;;16.10;99.90;;;;;;5037080;28;20494;-51
2022/07/17 08:01:53;;;;;;;;;;;16.20;99.90;;;;;;5039300;28;20708;-46
2022/07/17 08:04:19;;;;;;;8.32;0.73;;;16.30;99.90;;;;;;5031835;28;19923;-45
2022/07/17 08:06:44;;;;;;;6.18;0.30;;;16.40;99.90;;;;;;5040369;28;20045;-51
2022/07/17 08:09:10;;;;;;;3.53;0.30;;;16.40;99.90;;;;;;5029246;28;20543;-46
2022/07/17 08:11:36;;;;;;;4.00;0.68;;;16.50;99.90;;;;;;5039215;28;20375;-49
2022/07/17 08:14:01;;;;;;;3.60;0.40;;;16.60;99.90;;;;;;5059448;28;20158;-47
2022/07/17 08:16:27;;;;;;;3.30;0.38;;;16.60;99.90;;;;;;5043409;28;20045;-47
2022/07/17 08:18:53;;;;;;;4.80;0.30;;;16.70;99.90;;;;;;5056324;28;20147;-50
2022/07/17 08:21:18;;;;;;;3.40;0.38;;;16.70;99.90;;;;;;5030598;28;20029;-51
2022/07/17 08:23:44;;;;;;;5.65;0.30;;;16.80;99.90;;;;;;5045368;28;20060;-47
2022/07/17 08:26:09;;;;;;;5.03;0.40;;;16.80;99.90;;;;;;5046158;28;20045;-52
2022/07/17 08:28:35;;;;;;;2.17;0.20;;;16.90;99.90;;;;;;5057130;28;20036;-47
2022/07/17 08:31:00;;;;;;;3.50;0.60;;;17.00;99.90;;;;;;5054643;28;20045;-47
2022/07/17 08:33:26;;;;;;;3.03;0.40;;;17.00;99.90;;;;;;5029826;28;20042;-51
2022/07/17 08:35:51;;;;;;;2.15;0.25;;;17.10;99.90;;;;;;5028586;28;20189;-50
2022/07/17 08:38:17;;;;;;;4.32;0.38;;;17.10;99.90;;;;;;5030445;28;20538;-48
2022/07/17 08:40:49;;;;;;;2.38;0.28;;;17.20;99.90;;;;;;5029235;28;20396;-45
2022/07/17 08:43:14;;;;;;;6.32;0.40;;;17.30;99.90;;;;;;5034810;28;20571;-49
2022/07/17 08:45:40;;;;;;;6.72;0.35;;;17.30;99.90;;;;;;5034305;28;20053;-50
2022/07/17 08:48:12;;;;;;;9.63;1.02;;;17.40;99.90;;;;;;5047102;28;20060;-48
2022/07/17 08:50:37;;;;;;;4.20;0.30;;;17.50;99.90;;;;;;5041513;28;20041;-48
2022/07/17 08:53:03;;;;;;;3.03;0.32;;;17.60;99.90;;;;;;5035137;28;20037;-52
2022/07/17 08:55:29;;;;;;;6.65;0.30;;;17.60;99.70;;;;;;5030920;28;20025;-47
2022/07/17 08:57:55;;;;;;;;;;;17.60;99.70;;;;;;5029892;28;20498;-46
2022/07/17 09:00:23;;;;;;;2.60;0.50;;;17.60;99.20;;;;;;5048719;28;20011;-48
2022/07/17 09:02:55;;;;;;;1.85;0.30;;;17.70;99.70;;;;;;5055581;28;20084;-46
2022/07/17 09:05:24;;;;;;;1.80;0.52;;;17.80;99.10;;;;;;5048786;28;20044;-49
2022/07/17 09:07:50;;;;;;;10.32;1.50;;;17.80;99.40;;;;;;5047043;28;20127;-50
2022/07/17 09:10:15;;;;;;;4.82;0.40;;;17.80;99.20;;;;;;5047799;28;20205;-51
2022/07/17 09:12:41;;;;;;;4.90;0.60;;;17.90;99.00;;;;;;5046685;28;20040;-52
2022/07/17 09:15:33;;;;;;;;;;;18.00;98.90;;;;;;5048760;28;20033;-49
2022/07/17 09:17:59;;;;;;;5.03;0.40;;;18.10;98.80;;;;;;5046789;28;19921;-52
2022/07/17 09:20:25;;;;;;;4.95;0.50;;;18.10;98.50;;;;;;5035413;28;20038;-47
2022/07/17 09:23:01;;;;;;;7.03;0.47;;;18.20;98.90;;;;;;5038948;28;20028;-48
2022/07/17 09:25:36;;;;;;;5.53;0.45;;;18.20;98.90;;;;;;5039378;28;20083;-48
2022/07/17 09:28:03;;;;;;;1.60;0.20;;;18.30;99.10;;;;;;5049348;28;20037;-50
2022/07/17 09:30:30;;;;;;;3.67;0.40;;;18.40;98.10;;;;;;5041001;28;20445;-52
2022/07/17 09:32:55;;;;;;;;;;;18.40;98.40;;;;;;5051418;28;20137;-47
2022/07/17 09:35:23;;;;;;;3.28;0.40;;;18.50;97.50;;;;;;5032278;28;20398;-50
2022/07/17 09:37:52;;;;;;;3.83;0.20;;;18.50;97.40;;;;;;5046995;28;20056;-51
2022/07/17 09:43:02;;;;;;;2.10;0.45;;;18.50;97.50;;;;;;5035996;28;20080;-48
2022/07/17 09:45:28;;;;;;;4.38;0.40;;;18.60;98.00;;;;;;5033124;28;20037;-51
2022/07/17 09:47:56;;;;;;;3.20;0.50;;;18.60;97.20;;;;;;5030847;28;20466;-51
2022/07/17 09:50:23;;;;;;;2.85;0.43;;;18.60;97.20;;;;;;5038239;28;20403;-47
2022/07/17 09:52:52;;;;;;;2.13;0.40;;;18.70;97.60;;;;;;5051859;28;20041;-48
2022/07/17 09:55:20;;;;;;;2.35;0.40;;;18.70;97.70;;;;;;5041189;28;20553;-47
2022/07/17 09:57:47;;;;;;;2.47;0.57;;;18.70;97.20;;;;;;5032769;28;20048;-47
2022/07/17 10:00:13;;;;;;;2.33;0.40;;;18.80;97.10;;;;;;5033537;28;20060;-50
2022/07/17 10:02:43;;;;;;;5.30;0.50;;;18.80;97.50;;;;;;5050699;28;20037;-47
2022/07/17 10:05:15;;;;;;;2.75;0.55;;;18.90;96.80;;;;;;5039678;28;20450;-51
2022/07/17 10:07:45;;;;;;;2.42;0.47;;;19.00;96.40;;;;;;5031094;28;20399;-50
2022/07/17 10:10:13;;;;;;;4.95;0.30;;;19.10;96.30;;;;;;5043336;28;20620;-48
2022/07/17 10:12:41;;;;;;;5.40;0.75;;;19.10;95.70;;;;;;5046204;28;20041;-51
2022/07/17 10:15:08;;;;;;;2.28;0.50;;;19.10;95.80;;;;;;5042321;28;20452;-48
2022/07/17 10:17:34;;;;;;;8.90;0.68;;;19.10;96.10;;;;;;5036453;28;20625;-46
2022/07/17 10:19:59;;;;;;;3.25;0.22;;;19.10;95.60;;;;;;5040540;28;20045;-47
2022/07/17 10:22:26;;;;;;;1.50;0.45;;;19.10;95.80;;;;;;5042180;28;20038;-49
2022/07/17 10:25:04;;;;;;;7.03;0.75;;;19.20;95.70;;;;;;5031202;28;20052;-51
2022/07/17 10:27:30;;;;;;;2.13;0.30;;;19.20;94.00;;;;;;5031148;28;20076;-48
2022/07/17 10:30:06;;;;;;;3.08;0.40;;;19.30;94.50;;;;;;5038832;28;20410;-47
2022/07/17 10:32:33;;;;;;;4.53;1.08;;;19.30;93.70;;;;;;5046345;28;20037;-50
2022/07/17 10:34:59;;;;;;;2.10;0.20;;;19.30;94.10;;;;;;5030960;28;20049;-47
2022/07/17 10:37:35;;;;;;;5.28;0.40;;;19.40;94.20;;;;;;5038883;28;20048;-52
2022/07/17 10:40:11;;;;;;;3.90;0.27;;;19.40;93.30;;;;;;5043889;28;20182;-47
2022/07/17 10:43:00;;;;;;;2.88;0.82;;;19.40;93.20;;;;;;5032930;28;20055;-51
2022/07/17 10:45:27;;;;;;;4.85;0.20;;;19.40;92.70;;;;;;5040729;28;20037;-48
2022/07/17 10:48:21;;;;;;;3.63;0.47;;;19.50;93.80;;;;;;5051058;28;20415;-53
2022/07/17 10:50:55;;;;;;;45.65;2.95;;;19.60;92.60;;;;;;5048963;28;20064;-48
2022/07/17 10:53:32;;;;;;;32.05;1.00;;;19.70;92.80;;;;;;5047272;28;20038;-46
2022/07/17 10:56:06;;;;;;;3.33;0.10;;;19.80;92.90;;;;;;5038023;28;20490;-50
2022/07/17 10:58:37;;;;;;;7.40;0.85;;;19.90;92.40;;;;;;5033617;28;20112;-46
2022/07/17 11:01:12;;;;;;;1.38;0.20;;;19.90;92.50;;;;;;5037566;28;20044;-45
2022/07/17 11:03:52;;;;;;;2.15;0.17;;;19.90;92.70;;;;;;5031667;28;20041;-51
2022/07/17 11:06:23;;;;;;;0.55;0.10;;;19.90;91.90;;;;;;5050476;28;20041;-46
2022/07/17 11:09:09;;;;;;;3.58;0.35;;;20.00;91.90;;;;;;5031706;28;20410;-51
2022/07/17 11:11:50;;;;;;;2.00;0.20;;;20.10;91.50;;;;;;5048242;28;20127;-46
2022/07/17 11:14:18;;;;;;;5.22;0.38;;;20.10;92.50;;;;;;5035635;28;20057;-47
2022/07/17 11:16:49;;;;;;;2.13;0.30;;;20.20;91.20;;;;;;5045963;28;20406;-46
2022/07/17 11:19:25;;;;;;;1.50;0.10;;;20.20;91.60;;;;;;5051102;28;20111;-48
2022/07/17 11:21:52;;;;;;;1.15;0.22;;;20.20;91.70;;;;;;5033001;28;20052;-45
2022/07/17 11:24:17;;;;;;;4.20;0.50;;;20.20;91.30;;;;;;5030348;28;20041;-47
2022/07/17 11:26:44;;;;;;;22.33;3.70;;;20.30;90.50;;;;;;5034901;28;20044;-46
2022/07/17 11:29:11;;;;;;;0.82;0.20;;;20.30;90.90;;;;;;5030990;28;20046;-46
2022/07/17 11:31:37;;;;;;;1.13;0.20;;;20.40;90.70;;;;;;5035643;28;20045;-46
2022/07/17 11:34:08;;;;;;;;;;;20.40;91.20;;;;;;5030029;28;20041;-49
2022/07/17 11:36:44;;;;;;;1.77;0.30;;;20.50;91.40;;;;;;5046004;28;20019;-47
2022/07/17 11:39:15;;;;;;;4.05;0.30;;;20.50;90.60;;;;;;5045221;28;20485;-47
2022/07/17 11:41:46;;;;;;;1.63;0.10;;;20.60;90.20;;;;;;5046158;28;20075;-51
2022/07/17 11:44:16;;;;;;;3.15;0.20;;;20.70;91.40;;;;;;5049619;28;20098;-49
2022/07/17 11:46:45;;;;;;;3.75;0.50;;;20.70;90.90;;;;;;5035654;28;20180;-46
2022/07/17 11:49:11;;;;;;;2.75;0.20;;;20.70;90.10;;;;;;5030615;28;20049;-45
2022/07/17 11:51:38;;;;;;;;;;;20.70;88.90;;;;;;5043784;28;20082;-47
2022/07/17 11:54:09;;;;;;;2.15;0.30;;;20.80;88.20;;;;;;5049553;28;19927;-46
2022/07/17 11:56:34;;;;;;;1.13;0.20;;;20.90;88.30;;;;;;5039451;28;20414;-49
2022/07/17 11:59:00;;;;;;;1.85;0.20;;;20.90;90.00;;;;;;5049389;28;20061;-45
2022/07/17 12:01:28;;;;;;;;;;;21.00;88.50;;;;;;5042831;28;20490;-48
2022/07/17 12:03:58;;;;;;;5.63;0.35;;;21.10;87.70;;;;;;5049469;28;19927;-49
2022/07/17 12:06:26;;;;;;;4.20;0.40;;;21.10;90.00;;;;;;5034207;28;20083;-46
2022/07/17 12:08:54;;;;;;;2.95;0.88;;;21.20;89.30;;;;;;5031244;28;20075;-47
2022/07/17 12:11:20;;;;;;;2.40;0.47;;;21.20;87.60;;;;;;5033245;28;20595;-47
2022/07/17 12:13:46;;;;;;;;;;;21.30;87.30;;;;;;5037717;28;20144;-50
2022/07/17 12:16:27;;;;;;;0.75;0.10;;;21.30;85.70;;;;;;5029171;28;19924;-48
2022/07/17 12:19:15;;;;;;;1.25;0.30;;;21.30;87.80;;;;;;5033108;28;20044;-49
2022/07/17 12:21:54;;;;;;;2.17;0.20;;;21.30;88.70;;;;;;5029899;28;20065;-46
2022/07/17 12:24:36;;;;;;;3.78;0.57;;;21.30;88.40;;;;;;5044968;28;20049;-46
2022/07/17 12:27:04;;;;;;;122.07;8.05;;;21.40;89.90;;;;;;5049535;28;20041;-46
2022/07/17 12:29:30;;;;;;;2.45;0.30;;;21.50;88.80;;;;;;5049369;28;20052;-45
2022/07/17 12:32:01;;;;;;;;;;;21.50;88.50;;;;;;5050049;28;20048;-46
2022/07/17 12:34:27;;;;;;;3.10;0.22;;;21.60;86.70;;;;;;5048222;28;19921;-46
2022/07/17 12:36:53;;;;;;;;;;;21.60;89.20;;;;;;5050126;28;20789;-46
2022/07/17 12:39:18;;;;;;;3.65;0.28;;;21.70;88.40;;;;;;5047975;28;19924;-48
2022/07/17 12:41:44;;;;;;;;;;;21.70;88.20;;;;;;5048606;28;20119;-47
2022/07/17 12:44:10;;;;;;;2.65;0.32;;;21.70;87.30;;;;;;5035346;28;19921;-49
2022/07/17 12:46:35;;;;;;;;;;;21.70;88.40;;;;;;5037455;28;20494;-47
2022/07/17 12:49:01;;;;;;;4.80;0.30;;;21.70;89.20;;;;;;5042002;28;19917;-45
2022/07/17 12:51:27;;;;;;;;;;;21.70;88.90;;;;;;5035720;28;20040;-51
2022/07/17 12:53:52;;;;;;;3.25;0.30;;;21.70;90.40;;;;;;5048671;28;19925;-49